Time,TemperatureF,DewpointF,PressureIn,WindDirection,WindDirectionDegrees,WindSpeedMPH,WindSpeedGustMPH,Humidity,HourlyPrecipIn,Conditions,Clouds,dailyrainin,SoftwareType,DateUTC
2013-04-15 00:00:00,59.6,58.5,30.02,North,1,0.0,0.0,96,0.04,RA,,0.00,WeatherDisplay:10.37,2013-04-15 04:00:00,
2013-04-15 00:05:00,59.4,58.5,30.01,North,1,0.0,0.0,97,0.04,RA,,0.00,WeatherDisplay:10.37,2013-04-15 04:05:00,
2013-04-15 00:10:00,59.1,58.5,30.01,North,1,0.0,0.0,98,0.04,CLR,,0.00,WeatherDisplay:10.37,2013-04-15 04:10:00,
2013-04-15 00:15:00,59.1,58.5,30.01,North,1,0.0,0.0,98,0.03,CLR,,0.00,WeatherDisplay:10.37,2013-04-15 04:15:00,
2013-04-15 00:20:00,59.0,58.4,30.01,North,1,0.0,0.0,98,0.03,CLR,,0.00,WeatherDisplay:10.37,2013-04-15 04:20:00,
2013-04-15 00:25:00,58.9,58.3,30.01,North,1,0.0,0.0,98,0.03,CLR,,0.00,WeatherDisplay:10.37,2013-04-15 04:25:00,
2013-04-15 00:30:00,58.9,58.3,30.01,North,1,0.0,0.0,98,0.02,CLR,,0.00,WeatherDisplay:10.37,2013-04-15 04:30:00,
2013-04-15 00:35:00,58.8,58.2,30.00,North,1,0.0,0.0,98,0.02,CLR,,0.00,WeatherDisplay:10.37,2013-04-15 04:35:00,
2013-04-15 00:40:00,58.5,58.2,30.00,North,1,0.0,0.0,99,0.02,CLR,,0.00,WeatherDisplay:10.37,2013-04-15 04:40:00,
2013-04-15 00:45:00,58.6,58.0,30.01,West,271,3.5,3.5,98,0.01,CLR,,0.00,WeatherDisplay:10.37,2013-04-15 04:45:00,
2013-04-15 00:50:00,58.7,58.1,30.01,West,271,0.0,0.0,98,0.01,CLR,,0.00,WeatherDisplay:10.37,2013-04-15 04:50:00,
2013-04-15 00:55:00,58.7,58.1,30.01,West,271,0.0,0.0,98,0.01,CLR,,0.00,WeatherDisplay:10.37,2013-04-15 04:55:00,
2013-04-15 01:00:00,59.4,59.4,30.00,West,271,0.0,0.0,100,0.00,CLR,,0.01,WeatherDisplay:10.37,2013-04-15 05:00:00,
2013-04-15 01:05:00,60.0,60.0,30.00,West,271,0.0,0.0,100,0.02,RA,,0.02,WeatherDisplay:10.37,2013-04-15 05:05:00,
2013-04-15 01:10:00,60.0,59.4,30.00,West,271,0.0,0.0,98,0.03,RA,,0.03,WeatherDisplay:10.37,2013-04-15 05:10:00,
2013-04-15 01:15:00,59.5,58.9,29.99,West,271,0.0,0.0,98,0.04,RA,,0.04,WeatherDisplay:10.37,2013-04-15 05:15:00,
2013-04-15 01:20:00,58.9,58.6,29.99,West,271,0.0,0.0,99,0.04,RA,,0.04,WeatherDisplay:10.37,2013-04-15 05:20:00,
2013-04-15 01:25:00,58.5,58.2,30.00,West,271,0.0,0.0,99,0.05,RA,,0.05,WeatherDisplay:10.37,2013-04-15 05:25:00,
2013-04-15 01:30:00,58.2,58.2,30.00,West,271,0.0,0.0,100,0.05,RA,,0.05,WeatherDisplay:10.37,2013-04-15 05:30:00,
2013-04-15 01:35:00,58.1,58.1,30.00,West,271,0.0,0.0,100,0.05,,,0.05,WeatherDisplay:10.37,2013-04-15 05:35:00,
2013-04-15 01:40:00,58.1,58.1,30.00,West,271,0.0,0.0,100,0.06,RA,,0.06,WeatherDisplay:10.37,2013-04-15 05:40:00,
2013-04-15 01:45:00,58.1,58.1,30.00,West,271,0.0,0.0,100,0.07,RA,,0.07,WeatherDisplay:10.37,2013-04-15 05:45:00,
2013-04-15 01:50:00,57.8,57.8,30.00,West,271,0.0,0.0,100,0.08,RA,,0.08,WeatherDisplay:10.37,2013-04-15 05:50:00,
2013-04-15 01:55:00,57.8,57.8,30.00,West,271,0.0,0.0,100,0.09,RA,,0.09,WeatherDisplay:10.37,2013-04-15 05:55:00,
2013-04-15 02:00:00,57.8,57.8,30.00,West,271,0.0,0.0,100,0.10,RA,,0.10,WeatherDisplay:10.37,2013-04-15 06:00:00,
2013-04-15 02:05:00,57.9,57.9,30.00,West,271,0.0,0.0,100,0.08,RA,,0.11,WeatherDisplay:10.37,2013-04-15 06:05:00,
2013-04-15 02:10:00,57.9,57.9,30.00,West,271,0.0,0.0,100,0.08,RA,,0.12,WeatherDisplay:10.37,2013-04-15 06:10:00,
2013-04-15 02:15:00,58.0,58.0,30.00,West,271,0.0,0.0,100,0.08,RA,,0.12,WeatherDisplay:10.37,2013-04-15 06:15:00,
2013-04-15 02:20:00,58.0,58.0,29.99,West,271,0.0,0.0,100,0.08,RA,,0.13,WeatherDisplay:10.37,2013-04-15 06:20:00,
2013-04-15 02:25:00,57.8,57.8,29.99,West,271,0.0,0.0,100,0.08,RA,,0.13,WeatherDisplay:10.37,2013-04-15 06:25:00,
2013-04-15 02:30:00,57.9,57.9,29.99,West,271,0.0,0.0,100,0.08,RA,,0.13,WeatherDisplay:10.37,2013-04-15 06:30:00,
2013-04-15 02:35:00,57.8,57.8,29.99,West,271,0.0,0.0,100,0.09,RA,,0.14,WeatherDisplay:10.37,2013-04-15 06:35:00,
2013-04-15 02:40:00,57.9,57.9,29.99,West,271,0.0,0.0,100,0.08,RA,,0.14,WeatherDisplay:10.37,2013-04-15 06:40:00,
2013-04-15 02:45:00,58.0,58.0,29.99,West,271,0.0,0.0,100,0.07,CLR,,0.14,WeatherDisplay:10.37,2013-04-15 06:45:00,
2013-04-15 02:50:00,57.9,57.9,29.99,West,271,0.0,0.0,100,0.06,CLR,,0.14,WeatherDisplay:10.37,2013-04-15 06:50:00,
2013-04-15 02:56:00,57.9,57.9,29.99,West,271,0.0,0.0,100,0.06,RA,,0.15,WeatherDisplay:10.37,2013-04-15 06:56:00,
2013-04-15 03:01:00,58.0,58.0,29.99,West,271,0.0,0.0,100,0.05,RA,,0.15,WeatherDisplay:10.37,2013-04-15 07:01:00,
2013-04-15 03:41:00,58.8,58.8,29.98,West,271,0.0,0.0,100,0.04,RA,,0.18,WeatherDisplay:10.37,2013-04-15 07:41:00,
2013-04-15 03:42:00,58.8,58.8,29.98,West,271,0.0,0.0,100,0.04,RA,,0.18,WeatherDisplay:10.37,2013-04-15 07:42:00,
2013-04-15 03:47:00,58.6,58.6,29.98,West,271,0.0,0.0,100,0.04,RA,,0.18,WeatherDisplay:10.37,2013-04-15 07:47:00,
2013-04-15 03:48:00,58.5,58.5,29.98,West,271,0.0,0.0,100,0.04,RA,,0.18,WeatherDisplay:10.37,2013-04-15 07:48:00,
2013-04-15 03:53:00,58.4,58.4,29.98,West,271,0.0,0.0,100,0.03,CLR,,0.18,WeatherDisplay:10.37,2013-04-15 07:53:00,
2013-04-15 03:58:00,58.4,58.4,29.99,West,271,0.0,0.0,100,0.03,CLR,,0.18,WeatherDisplay:10.37,2013-04-15 07:58:00,
2013-04-15 04:03:00,58.4,58.4,29.99,West,271,0.0,0.0,100,0.03,CLR,,0.18,WeatherDisplay:10.37,2013-04-15 08:03:00,
2013-04-15 04:08:00,58.2,58.2,29.99,West,271,0.0,0.0,100,0.04,RA,,0.20,WeatherDisplay:10.37,2013-04-15 08:08:00,
2013-04-15 04:13:00,58.0,58.0,29.98,West,271,0.0,0.0,100,0.05,RA,,0.22,WeatherDisplay:10.37,2013-04-15 08:13:00,
2013-04-15 04:19:00,57.8,57.8,29.98,West,271,0.0,0.0,100,0.06,RA,,0.22,WeatherDisplay:10.37,2013-04-15 08:19:00,
2013-04-15 04:24:00,57.8,57.8,29.98,West,271,0.0,0.0,100,0.05,,,0.22,WeatherDisplay:10.37,2013-04-15 08:24:00,
2013-04-15 04:29:00,57.9,57.9,29.98,West,271,0.0,0.0,100,0.05,CLR,,0.22,WeatherDisplay:10.37,2013-04-15 08:29:00,
2013-04-15 04:34:00,58.0,58.0,29.98,West,271,0.0,0.0,100,0.05,CLR,,0.22,WeatherDisplay:10.37,2013-04-15 08:34:00,
2013-04-15 04:38:00,58.1,58.1,29.98,West,271,0.0,0.0,100,0.05,CLR,,0.22,WeatherDisplay:10.37,2013-04-15 08:38:00,
2013-04-15 04:40:00,58.1,58.1,29.98,West,271,0.0,0.0,100,0.04,CLR,,0.22,WeatherDisplay:10.37,2013-04-15 08:40:00,
2013-04-15 04:45:00,58.2,58.2,29.98,West,271,0.0,0.0,100,0.04,CLR,,0.22,WeatherDisplay:10.37,2013-04-15 08:45:00,
2013-04-15 04:50:00,58.3,58.3,29.98,West,271,0.0,0.0,100,0.04,CLR,,0.22,WeatherDisplay:10.37,2013-04-15 08:50:00,
2013-04-15 04:55:00,58.4,58.4,29.99,West,271,0.0,0.0,100,0.04,CLR,,0.22,WeatherDisplay:10.37,2013-04-15 08:55:00,
2013-04-15 05:00:00,58.4,58.4,29.99,West,271,0.0,0.0,100,0.04,CLR,,0.22,WeatherDisplay:10.37,2013-04-15 09:00:00,
2013-04-15 05:05:00,58.3,58.3,29.99,West,271,0.0,0.0,100,0.04,RA,,0.23,WeatherDisplay:10.37,2013-04-15 09:05:00,
2013-04-15 05:10:00,58.3,58.3,29.99,West,271,0.0,0.0,100,0.03,RA,,0.24,WeatherDisplay:10.37,2013-04-15 09:10:00,
2013-04-15 05:15:00,58.3,58.3,29.99,West,271,0.0,0.0,100,0.02,RA,,0.24,WeatherDisplay:10.37,2013-04-15 09:15:00,
2013-04-15 05:20:00,58.2,58.2,30.00,West,271,0.0,0.0,100,0.02,CLR,,0.24,WeatherDisplay:10.37,2013-04-15 09:20:00,
2013-04-15 05:25:00,58.2,58.2,30.00,West,271,0.0,0.0,100,0.02,CLR,,0.24,WeatherDisplay:10.37,2013-04-15 09:25:00,
2013-04-15 05:30:00,58.1,58.1,30.00,West,271,0.0,0.0,100,0.03,RA,,0.25,WeatherDisplay:10.37,2013-04-15 09:30:00,
2013-04-15 05:35:00,58.0,58.0,30.00,West,271,0.0,0.0,100,0.03,RA,,0.25,WeatherDisplay:10.37,2013-04-15 09:35:00,
2013-04-15 05:40:00,58.1,58.1,30.00,West,271,0.0,0.0,100,0.03,CLR,,0.25,WeatherDisplay:10.37,2013-04-15 09:40:00,
2013-04-15 05:45:00,58.2,58.2,30.00,West,271,0.0,0.0,100,0.03,CLR,,0.25,WeatherDisplay:10.37,2013-04-15 09:45:00,
2013-04-15 05:50:00,58.1,58.1,30.00,West,271,0.0,0.0,100,0.03,CLR,,0.25,WeatherDisplay:10.37,2013-04-15 09:50:00,
2013-04-15 05:55:00,58.3,58.3,30.01,West,271,0.0,0.0,100,0.03,CLR,,0.26,WeatherDisplay:10.37,2013-04-15 09:55:00,
2013-04-15 06:00:00,59.4,59.4,30.01,West,271,0.0,0.0,100,0.04,RA,,0.26,WeatherDisplay:10.37,2013-04-15 10:00:00,
2013-04-15 06:05:00,60.1,60.1,30.01,West,271,0.0,0.0,100,0.03,RA,,0.26,WeatherDisplay:10.37,2013-04-15 10:05:00,
2013-04-15 06:10:00,59.5,59.5,30.01,West,271,0.0,0.0,100,0.02,CLR,,0.26,WeatherDisplay:10.37,2013-04-15 10:10:00,
2013-04-15 06:15:00,59.0,59.0,30.01,West,271,0.0,0.0,100,0.02,CLR,,0.26,WeatherDisplay:10.37,2013-04-15 10:15:00,
2013-04-15 06:20:00,58.6,58.6,30.01,West,271,0.0,0.0,100,0.02,CLR,,0.26,WeatherDisplay:10.37,2013-04-15 10:20:00,
2013-04-15 06:25:00,58.4,58.4,30.00,West,271,0.0,0.0,100,0.02,CLR,,0.26,WeatherDisplay:10.37,2013-04-15 10:25:00,
2013-04-15 06:30:00,58.2,58.2,30.01,West,271,0.0,0.0,100,0.01,CLR,,0.26,WeatherDisplay:10.37,2013-04-15 10:30:00,
2013-04-15 06:35:00,58.1,58.1,30.01,West,271,0.0,0.0,100,0.01,CLR,,0.26,WeatherDisplay:10.37,2013-04-15 10:35:00,
2013-04-15 06:40:00,57.9,57.9,30.01,West,271,0.0,0.0,100,0.01,CLR,,0.26,WeatherDisplay:10.37,2013-04-15 10:40:00,
2013-04-15 06:45:00,57.8,57.8,30.01,West,271,0.0,0.0,100,0.01,CLR,,0.26,WeatherDisplay:10.37,2013-04-15 10:45:00,
2013-04-15 06:50:00,57.8,57.8,30.01,West,271,0.0,0.0,100,0.01,CLR,,0.26,WeatherDisplay:10.37,2013-04-15 10:50:00,
2013-04-15 06:57:00,57.8,57.8,30.01,West,271,0.0,0.0,100,0.00,CLR,,0.26,WeatherDisplay:10.37,2013-04-15 10:57:00,
2013-04-15 07:02:00,57.8,57.8,30.01,West,271,0.0,0.0,100,0.00,CLR,,0.26,WeatherDisplay:10.37,2013-04-15 11:02:00,
2013-04-15 07:07:00,57.8,57.8,30.01,West,271,0.0,0.0,100,0.00,CLR,,0.26,WeatherDisplay:10.37,2013-04-15 11:07:00,
2013-04-15 07:12:00,57.8,57.8,30.01,West,271,0.0,0.0,100,0.00,CLR,,0.26,WeatherDisplay:10.37,2013-04-15 11:12:00,
2013-04-15 07:17:00,57.8,57.8,30.02,West,271,0.0,0.0,100,0.00,CLR,,0.26,WeatherDisplay:10.37,2013-04-15 11:17:00,
2013-04-15 07:22:00,57.8,57.8,30.02,West,271,0.0,0.0,100,0.00,CLR,,0.26,WeatherDisplay:10.37,2013-04-15 11:22:00,
2013-04-15 07:27:00,57.9,57.9,30.02,West,271,0.0,0.0,100,0.00,CLR,,0.26,WeatherDisplay:10.37,2013-04-15 11:27:00,
2013-04-15 07:32:00,58.0,58.0,30.03,West,271,0.0,0.0,100,0.00,CLR,,0.26,WeatherDisplay:10.37,2013-04-15 11:32:00,
2013-04-15 07:37:00,58.1,58.1,30.03,West,271,0.0,0.0,100,0.00,CLR,,0.26,WeatherDisplay:10.37,2013-04-15 11:37:00,
2013-04-15 07:42:00,58.2,58.2,30.03,West,271,0.0,0.0,100,0.00,CLR,,0.26,WeatherDisplay:10.37,2013-04-15 11:42:00,
2013-04-15 07:47:00,58.1,58.1,30.03,West,271,0.0,0.0,100,0.00,CLR,,0.26,WeatherDisplay:10.37,2013-04-15 11:47:00,
2013-04-15 07:52:00,58.1,58.1,30.03,West,271,0.0,0.0,100,0.00,CLR,,0.26,WeatherDisplay:10.37,2013-04-15 11:52:00,
2013-04-15 07:57:00,58.1,58.1,30.03,West,271,0.0,0.0,100,0.00,CLR,,0.26,WeatherDisplay:10.37,2013-04-15 11:57:00,
2013-04-15 08:02:00,58.4,58.4,30.04,West,271,0.0,0.0,100,0.00,CLR,,0.26,WeatherDisplay:10.37,2013-04-15 12:02:00,
2013-04-15 08:08:00,59.0,59.0,30.04,West,271,0.0,0.0,100,0.00,CLR,,0.26,WeatherDisplay:10.37,2013-04-15 12:08:00,
2013-04-15 08:13:00,59.5,59.5,30.04,West,271,0.0,0.0,100,0.00,CLR,,0.26,WeatherDisplay:10.37,2013-04-15 12:13:00,
2013-04-15 08:18:00,59.4,59.4,30.04,West,271,0.0,0.0,100,0.00,CLR,,0.26,WeatherDisplay:10.37,2013-04-15 12:18:00,
2013-04-15 08:23:00,60.0,60.0,30.05,West,271,0.0,0.0,100,0.00,CLR,,0.26,WeatherDisplay:10.37,2013-04-15 12:23:00,
2013-04-15 08:28:00,60.5,60.5,30.05,West,271,0.0,0.0,100,0.00,CLR,,0.26,WeatherDisplay:10.37,2013-04-15 12:28:00,
2013-04-15 08:33:00,60.3,60.3,30.05,West,274,0.0,0.0,100,0.00,CLR,,0.26,WeatherDisplay:10.37,2013-04-15 12:33:00,
2013-04-15 08:38:00,59.7,59.7,30.05,West,274,0.0,0.0,100,0.00,CLR,,0.26,WeatherDisplay:10.37,2013-04-15 12:38:00,
2013-04-15 08:43:00,59.4,59.4,30.05,West,274,0.0,0.0,100,0.00,CLR,,0.26,WeatherDisplay:10.37,2013-04-15 12:43:00,
2013-04-15 08:48:00,59.2,59.2,30.06,West,274,0.0,0.0,100,0.00,CLR,,0.26,WeatherDisplay:10.37,2013-04-15 12:48:00,
2013-04-15 08:53:00,59.3,59.3,30.06,West,274,0.0,0.0,100,0.00,CLR,,0.26,WeatherDisplay:10.37,2013-04-15 12:53:00,
2013-04-15 08:58:00,59.3,59.3,30.06,West,274,0.0,0.0,100,0.00,CLR,,0.26,WeatherDisplay:10.37,2013-04-15 12:58:00,
2013-04-15 09:03:00,59.1,59.1,30.06,West,274,0.0,0.0,100,0.00,CLR,,0.26,WeatherDisplay:10.37,2013-04-15 13:03:00,
2013-04-15 09:09:00,59.2,59.2,30.06,West,274,0.0,0.0,100,0.00,CLR,,0.26,WeatherDisplay:10.37,2013-04-15 13:09:00,
2013-04-15 09:14:00,59.1,59.1,30.06,West,274,0.0,0.0,100,0.00,CLR,,0.26,WeatherDisplay:10.37,2013-04-15 13:14:00,
2013-04-15 09:19:00,59.2,59.2,30.06,West,274,0.0,0.0,100,0.00,CLR,,0.26,WeatherDisplay:10.37,2013-04-15 13:19:00,
2013-04-15 09:24:00,59.3,59.3,30.06,West,274,0.0,0.0,100,0.00,CLR,,0.26,WeatherDisplay:10.37,2013-04-15 13:24:00,
2013-04-15 09:29:00,59.2,59.2,30.06,West,274,0.0,0.0,100,0.00,CLR,,0.26,WeatherDisplay:10.37,2013-04-15 13:29:00,
2013-04-15 09:34:00,59.3,59.3,30.06,West,274,0.0,0.0,100,0.00,CLR,,0.26,WeatherDisplay:10.37,2013-04-15 13:34:00,
2013-04-15 09:39:00,59.2,59.2,30.06,North,354,2.3,2.3,100,0.00,CLR,,0.26,WeatherDisplay:10.37,2013-04-15 13:39:00,
2013-04-15 09:44:00,59.3,59.3,30.06,North,354,0.0,0.0,100,0.00,CLR,,0.26,WeatherDisplay:10.37,2013-04-15 13:44:00,
2013-04-15 09:49:00,59.3,59.3,30.06,NNE,17,1.2,1.2,100,0.00,CLR,,0.26,WeatherDisplay:10.37,2013-04-15 13:49:00,
2013-04-15 09:54:00,59.3,59.3,30.07,NNE,25,2.1,2.1,100,0.00,CLR,,0.26,WeatherDisplay:10.37,2013-04-15 13:54:00,
2013-04-15 09:59:00,59.2,59.2,30.07,NNE,16,0.0,0.0,100,0.00,CLR,,0.26,WeatherDisplay:10.37,2013-04-15 13:59:00,
2013-04-15 10:04:00,59.2,59.2,30.08,NW,326,1.2,0.0,100,0.00,CLR,,0.26,WeatherDisplay:10.37,2013-04-15 14:04:00,
2013-04-15 10:09:00,59.1,59.1,30.08,NW,326,0.0,0.0,100,0.00,CLR,,0.26,WeatherDisplay:10.37,2013-04-15 14:09:00,
2013-04-15 10:14:00,59.1,59.1,30.08,WNW,298,0.0,0.0,100,0.00,CLR,,0.26,WeatherDisplay:10.37,2013-04-15 14:14:00,
2013-04-15 10:19:00,59.3,59.3,30.08,North,6,1.2,1.2,100,0.00,CLR,,0.26,WeatherDisplay:10.37,2013-04-15 14:19:00,
2013-04-15 10:24:00,59.6,59.6,30.08,North,6,0.0,0.0,100,0.00,CLR,,0.26,WeatherDisplay:10.37,2013-04-15 14:24:00,
2013-04-15 10:29:00,59.8,59.8,30.08,North,354,0.0,0.0,100,0.00,CLR,,0.26,WeatherDisplay:10.37,2013-04-15 14:29:00,
2013-04-15 10:34:00,59.9,59.9,30.08,NW,306,3.5,3.5,100,0.00,CLR,,0.26,WeatherDisplay:10.37,2013-04-15 14:34:00,
2013-04-15 10:39:00,60.0,60.0,30.08,NW,306,0.0,0.0,100,0.00,CLR,,0.26,WeatherDisplay:10.37,2013-04-15 14:39:00,
2013-04-15 10:44:00,60.0,60.0,30.08,East,100,4.6,4.6,100,0.00,CLR,,0.26,WeatherDisplay:10.37,2013-04-15 14:44:00,
2013-04-15 10:49:00,60.2,60.2,30.08,NE,37,2.3,2.3,100,0.00,CLR,,0.26,WeatherDisplay:10.37,2013-04-15 14:49:00,
2013-04-15 10:54:00,60.4,60.4,30.08,NE,37,0.0,0.0,100,0.00,CLR,,0.26,WeatherDisplay:10.37,2013-04-15 14:54:00,
2013-04-15 11:00:00,60.6,60.6,30.08,NE,37,0.0,0.0,100,0.00,CLR,,0.26,WeatherDisplay:10.37,2013-04-15 15:00:00,
2013-04-15 11:05:00,60.9,60.9,30.08,NE,44,4.6,4.6,100,0.00,CLR,,0.26,WeatherDisplay:10.37,2013-04-15 15:05:00,
2013-04-15 11:10:00,60.8,60.8,30.08,NNE,16,0.0,0.0,100,0.00,CLR,,0.26,WeatherDisplay:10.37,2013-04-15 15:10:00,
2013-04-15 11:15:00,60.8,60.8,30.08,NNW,347,1.2,0.0,100,0.00,CLR,,0.26,WeatherDisplay:10.37,2013-04-15 15:15:00,
2013-04-15 11:20:00,60.9,60.9,30.09,North,7,4.6,4.6,100,0.00,CLR,,0.26,WeatherDisplay:10.37,2013-04-15 15:20:00,
2013-04-15 11:25:00,60.9,60.9,30.09,ENE,73,2.3,0.0,100,0.00,CLR,,0.26,WeatherDisplay:10.37,2013-04-15 15:25:00,
2013-04-15 11:30:00,61.2,61.2,30.09,NE,51,1.2,1.2,100,0.00,CLR,,0.26,WeatherDisplay:10.37,2013-04-15 15:30:00,
2013-04-15 11:35:00,61.8,61.8,30.08,West,272,0.0,0.0,100,0.00,CLR,,0.26,WeatherDisplay:10.37,2013-04-15 15:35:00,
2013-04-15 11:40:00,62.0,62.0,30.09,West,272,0.0,0.0,100,0.00,CLR,,0.26,WeatherDisplay:10.37,2013-04-15 15:40:00,
2013-04-15 11:45:00,61.8,61.8,30.09,East,89,3.5,3.5,100,0.00,CLR,,0.26,WeatherDisplay:10.37,2013-04-15 15:45:00,
2013-04-15 11:50:00,61.7,61.7,30.09,West,277,2.3,2.3,100,0.00,CLR,,0.26,WeatherDisplay:10.37,2013-04-15 15:50:00,
2013-04-15 11:55:00,61.5,61.5,30.09,West,277,0.0,0.0,100,0.00,CLR,,0.26,WeatherDisplay:10.37,2013-04-15 15:55:00,
2013-04-15 12:00:00,61.5,61.5,30.10,NNE,16,1.2,1.2,100,0.00,CLR,,0.26,WeatherDisplay:10.37,2013-04-15 16:00:00,
2013-04-15 12:05:00,61.5,61.5,30.10,West,270,0.0,0.0,100,0.00,CLR,,0.26,WeatherDisplay:10.37,2013-04-15 16:05:00,
2013-04-15 12:11:00,61.7,61.7,30.11,West,270,0.0,0.0,100,0.00,CLR,,0.26,WeatherDisplay:10.37,2013-04-15 16:11:00,
2013-04-15 12:17:00,61.7,61.7,30.11,NW,305,3.5,3.5,100,0.00,CLR,,0.26,WeatherDisplay:10.37,2013-04-15 16:17:00,
2013-04-15 12:22:00,61.7,61.7,30.11,NW,323,0.0,0.0,100,0.00,CLR,,0.26,WeatherDisplay:10.37,2013-04-15 16:22:00,
2013-04-15 12:27:00,61.7,61.7,30.11,NW,323,0.0,0.0,100,0.00,CLR,,0.26,WeatherDisplay:10.37,2013-04-15 16:27:00,
2013-04-15 12:32:00,61.7,61.7,30.10,NW,323,0.0,0.0,100,0.00,CLR,,0.26,WeatherDisplay:10.37,2013-04-15 16:32:00,
2013-04-15 12:37:00,61.8,61.8,30.11,NNE,20,0.0,0.0,100,0.00,CLR,,0.26,WeatherDisplay:10.37,2013-04-15 16:37:00,
2013-04-15 12:43:00,62.3,62.3,30.11,NNE,18,1.9,1.9,100,0.00,CLR,,0.26,WeatherDisplay:10.37,2013-04-15 16:43:00,
2013-04-15 12:48:00,62.6,62.6,30.10,NNE,27,3.5,3.5,100,0.00,CLR,,0.26,WeatherDisplay:10.37,2013-04-15 16:48:00,
2013-04-15 12:54:00,62.6,62.3,30.10,North,356,0.9,0.0,99,0.00,CLR,,0.26,WeatherDisplay:10.37,2013-04-15 16:54:00,
2013-04-15 12:59:00,63.0,62.7,30.10,ENE,64,2.1,2.1,99,0.00,CLR,,0.26,WeatherDisplay:10.37,2013-04-15 16:59:00,
2013-04-15 13:04:00,63.3,62.7,30.10,NE,51,0.0,0.0,98,0.00,CLR,,0.26,WeatherDisplay:10.37,2013-04-15 17:04:00,
2013-04-15 13:09:00,63.3,62.7,30.10,ENE,65,0.0,0.0,98,0.00,CLR,,0.26,WeatherDisplay:10.37,2013-04-15 17:09:00,
2013-04-15 13:14:00,63.6,63.0,30.10,ESE,106,0.0,0.0,98,0.00,CLR,,0.26,WeatherDisplay:10.37,2013-04-15 17:14:00,
2013-04-15 13:19:00,64.1,63.5,30.10,East,95,0.0,0.0,98,0.00,CLR,,0.26,WeatherDisplay:10.37,2013-04-15 17:19:00,
2013-04-15 13:21:00,64.3,63.7,30.10,ESE,106,3.5,3.5,98,0.00,CLR,,0.26,WeatherDisplay:10.37,2013-04-15 17:21:00,
2013-04-15 13:25:00,65.0,63.8,30.09,NNE,25,2.3,2.3,96,0.00,CLR,,0.26,WeatherDisplay:10.37,2013-04-15 17:25:00,
2013-04-15 13:30:00,65.2,63.4,30.10,ENE,69,0.0,0.0,94,0.00,CLR,,0.26,WeatherDisplay:10.37,2013-04-15 17:30:00,
2013-04-15 13:36:00,65.1,63.6,30.10,East,89,4.6,4.6,95,0.00,CLR,,0.26,WeatherDisplay:10.37,2013-04-15 17:36:00,
2013-04-15 13:41:00,65.1,63.0,30.09,NE,52,0.0,0.0,93,0.00,CLR,,0.26,WeatherDisplay:10.37,2013-04-15 17:41:00,
2013-04-15 13:46:00,64.9,62.5,30.10,North,7,0.0,0.0,92,0.00,CLR,,0.26,WeatherDisplay:10.37,2013-04-15 17:46:00,
2013-04-15 13:51:00,64.8,62.4,30.10,North,7,0.0,0.0,92,0.00,CLR,,0.26,WeatherDisplay:10.37,2013-04-15 17:51:00,
2013-04-15 13:56:00,64.8,62.1,30.10,NE,45,0.0,0.0,91,0.00,CLR,,0.26,WeatherDisplay:10.37,2013-04-15 17:56:00,
2013-04-15 14:01:00,64.7,62.3,30.11,NE,45,0.0,0.0,92,0.00,CLR,,0.26,WeatherDisplay:10.37,2013-04-15 18:01:00,
2013-04-15 14:06:00,64.9,62.5,30.11,NE,45,0.0,0.0,92,0.00,CLR,,0.26,WeatherDisplay:10.37,2013-04-15 18:06:00,
2013-04-15 14:11:00,65.3,62.3,30.10,NE,45,0.0,0.0,90,0.00,CLR,,0.26,WeatherDisplay:10.37,2013-04-15 18:11:00,
2013-04-15 14:17:00,65.6,61.9,30.10,NE,45,0.0,0.0,88,0.00,CLR,,0.26,WeatherDisplay:10.37,2013-04-15 18:17:00,
2013-04-15 14:22:00,66.0,62.0,30.11,NE,45,0.0,0.0,87,0.00,CLR,,0.26,WeatherDisplay:10.37,2013-04-15 18:22:00,
2013-04-15 14:27:00,66.4,61.1,30.10,NE,35,3.5,3.5,83,0.00,CLR,,0.26,WeatherDisplay:10.37,2013-04-15 18:27:00,
2013-04-15 14:29:00,66.6,61.3,30.11,North,6,2.3,2.3,83,0.00,CLR,,0.26,WeatherDisplay:10.37,2013-04-15 18:29:00,
2013-04-15 14:34:00,67.2,61.9,30.11,North,6,0.0,0.0,83,0.00,CLR,,0.26,WeatherDisplay:10.37,2013-04-15 18:34:00,
2013-04-15 14:39:00,67.7,60.6,30.11,North,360,2.3,2.3,78,0.00,CLR,,0.26,WeatherDisplay:10.37,2013-04-15 18:39:00,
2013-04-15 14:44:00,68.4,60.9,30.10,WNW,302,0.0,0.0,77,0.00,CLR,,0.26,WeatherDisplay:10.37,2013-04-15 18:44:00,
2013-04-15 14:49:00,69.3,60.7,30.10,ENE,62,3.1,3.1,74,0.00,CLR,,0.26,WeatherDisplay:10.37,2013-04-15 18:49:00,
2013-04-15 14:54:00,69.4,60.8,30.10,East,99,1.2,1.2,74,0.00,CLR,,0.26,WeatherDisplay:10.37,2013-04-15 18:54:00,
2013-04-15 14:59:00,69.1,60.5,30.10,NE,52,3.4,3.4,74,0.00,CLR,,0.26,WeatherDisplay:10.37,2013-04-15 18:59:00,
2013-04-15 15:04:00,69.1,60.1,30.10,East,82,0.0,0.0,73,0.00,CLR,,0.26,WeatherDisplay:10.37,2013-04-15 19:04:00,
2013-04-15 15:09:00,68.9,60.3,30.10,East,82,0.0,0.0,74,0.00,CLR,,0.26,WeatherDisplay:10.37,2013-04-15 19:09:00,
2013-04-15 15:14:00,69.1,61.2,30.10,East,96,2.9,2.9,76,0.00,CLR,,0.26,WeatherDisplay:10.37,2013-04-15 19:14:00,
2013-04-15 15:19:00,69.5,60.5,30.09,SE,136,3.5,3.5,73,0.00,CLR,,0.26,WeatherDisplay:10.37,2013-04-15 19:19:00,
2013-04-15 15:24:00,70.2,59.1,30.09,SE,126,0.0,0.0,68,0.00,CLR,,0.26,WeatherDisplay:10.37,2013-04-15 19:24:00,
2013-04-15 15:29:00,71.0,59.9,30.09,ENE,65,1.2,0.0,68,0.00,CLR,,0.26,WeatherDisplay:10.37,2013-04-15 19:29:00,
2013-04-15 15:35:00,72.7,59.8,30.09,SE,130,1.2,0.0,64,0.00,CLR,,0.26,WeatherDisplay:10.37,2013-04-15 19:35:00,
2013-04-15 15:40:00,73.0,59.7,30.09,East,95,2.3,2.3,63,0.00,CLR,,0.26,WeatherDisplay:10.37,2013-04-15 19:40:00,
2013-04-15 15:45:00,73.5,58.8,30.09,ESE,120,1.2,0.0,60,0.00,CLR,,0.26,WeatherDisplay:10.37,2013-04-15 19:45:00,
2013-04-15 15:50:00,73.4,58.2,30.09,ESE,120,0.0,0.0,59,0.00,CLR,,0.26,WeatherDisplay:10.37,2013-04-15 19:50:00,
2013-04-15 15:56:00,73.2,57.5,30.09,ESE,120,0.0,0.1,58,0.00,CLR,,0.26,WeatherDisplay:10.37,2013-04-15 19:56:00,
2013-04-15 15:57:00,73.0,56.9,30.09,NE,42,2.3,2.3,57,0.00,CLR,,0.26,WeatherDisplay:10.37,2013-04-15 19:57:00,
2013-04-15 15:58:00,72.9,56.8,30.09,North,1,1.2,1.2,57,0.00,CLR,,0.26,WeatherDisplay:10.37,2013-04-15 19:58:00,
2013-04-15 16:02:00,72.6,56.5,30.09,North,8,0.0,0.0,57,0.00,CLR,,0.26,WeatherDisplay:10.37,2013-04-15 20:02:00,
2013-04-15 16:07:00,71.9,57.3,30.09,North,8,0.0,0.0,60,0.00,CLR,,0.26,WeatherDisplay:10.37,2013-04-15 20:07:00,
2013-04-15 16:12:00,72.7,57.5,30.09,North,8,0.0,0.0,59,0.00,CLR,,0.26,WeatherDisplay:10.37,2013-04-15 20:12:00,
2013-04-15 16:17:00,73.6,58.9,30.09,North,8,0.0,0.0,60,0.00,CLR,,0.26,WeatherDisplay:10.37,2013-04-15 20:17:00,
2013-04-15 16:22:00,74.5,58.8,30.09,North,8,0.0,0.0,58,0.00,CLR,,0.26,WeatherDisplay:10.37,2013-04-15 20:22:00,
2013-04-15 16:27:00,74.8,57.5,30.08,North,8,0.0,0.0,55,0.00,CLR,,0.26,WeatherDisplay:10.37,2013-04-15 20:27:00,
2013-04-15 16:32:00,74.0,57.3,30.09,North,8,0.0,0.0,56,0.00,CLR,,0.26,WeatherDisplay:10.37,2013-04-15 20:32:00,
2013-04-15 16:37:00,73.3,56.2,30.09,North,8,0.0,0.0,55,0.00,CLR,,0.26,WeatherDisplay:10.37,2013-04-15 20:37:00,
2013-04-15 16:42:00,72.9,56.3,30.09,North,8,0.0,0.0,56,0.00,CLR,,0.26,WeatherDisplay:10.37,2013-04-15 20:42:00,
2013-04-15 16:47:00,73.9,56.7,30.08,North,8,0.0,0.0,55,0.00,CLR,,0.26,WeatherDisplay:10.37,2013-04-15 20:47:00,
2013-04-15 16:52:00,74.3,57.1,30.08,SSW,209,0.0,0.0,55,0.00,CLR,,0.26,WeatherDisplay:10.37,2013-04-15 20:52:00,
2013-04-15 16:57:00,74.4,56.7,30.08,SSW,209,0.0,0.0,54,0.00,CLR,,0.26,WeatherDisplay:10.37,2013-04-15 20:57:00,
2013-04-15 17:02:00,75.3,57.0,30.08,SSW,209,0.0,0.0,53,0.00,CLR,,0.26,WeatherDisplay:10.37,2013-04-15 21:02:00,
2013-04-15 17:07:00,77.0,56.4,30.09,SW,232,1.2,0.0,49,0.00,CLR,,0.26,WeatherDisplay:10.37,2013-04-15 21:07:00,
2013-04-15 17:12:00,77.5,56.8,30.09,WSW,241,1.2,0.0,49,0.00,CLR,,0.26,WeatherDisplay:10.37,2013-04-15 21:12:00,
2013-04-15 17:17:00,77.0,56.4,30.09,WSW,241,0.0,0.0,49,0.00,CLR,,0.26,WeatherDisplay:10.37,2013-04-15 21:17:00,
2013-04-15 17:22:00,75.9,55.9,30.09,North,11,0.0,0.0,50,0.00,CLR,,0.26,WeatherDisplay:10.37,2013-04-15 21:22:00,
2013-04-15 17:27:00,75.3,55.4,30.09,North,11,0.0,0.0,50,0.00,CLR,,0.26,WeatherDisplay:10.37,2013-04-15 21:27:00,
2013-04-15 17:32:00,74.4,55.6,30.09,North,11,0.0,0.0,52,0.00,CLR,,0.26,WeatherDisplay:10.37,2013-04-15 21:32:00,
2013-04-15 17:37:00,73.4,55.7,30.09,NNE,23,1.2,0.0,54,0.00,CLR,,0.26,WeatherDisplay:10.37,2013-04-15 21:37:00,
2013-04-15 17:42:00,73.2,55.6,30.10,NNE,23,0.0,0.8,54,0.00,CLR,,0.26,WeatherDisplay:10.37,2013-04-15 21:42:00,
2013-04-15 17:47:00,73.4,55.7,30.10,NNE,23,0.0,0.0,54,0.00,CLR,,0.26,WeatherDisplay:10.37,2013-04-15 21:47:00,
2013-04-15 17:52:00,73.1,56.5,30.10,North,11,1.0,1.0,56,0.00,CLR,,0.26,WeatherDisplay:10.37,2013-04-15 21:52:00,
2013-04-15 17:57:00,72.2,55.6,30.10,NE,35,0.0,0.0,56,0.00,CLR,,0.26,WeatherDisplay:10.37,2013-04-15 21:57:00,
2013-04-15 18:02:00,72.3,56.2,30.10,NE,35,0.0,0.0,57,0.00,CLR,,0.26,WeatherDisplay:10.37,2013-04-15 22:02:00,
2013-04-15 18:07:00,73.2,57.1,30.10,ESE,106,0.0,0.0,57,0.00,CLR,,0.26,WeatherDisplay:10.37,2013-04-15 22:07:00,
2013-04-15 18:13:00,73.3,56.7,30.10,East,86,2.3,2.3,56,0.00,CLR,,0.26,WeatherDisplay:10.37,2013-04-15 22:13:00,
2013-04-15 18:18:00,72.6,56.5,30.10,ESE,123,3.5,3.5,57,0.00,CLR,,0.26,WeatherDisplay:10.37,2013-04-15 22:18:00,
2013-04-15 18:23:00,72.5,56.4,30.11,NNE,28,0.0,0.0,57,0.00,CLR,,0.26,WeatherDisplay:10.37,2013-04-15 22:23:00,
2013-04-15 18:28:00,73.0,56.4,30.11,NNE,28,0.0,0.0,56,0.00,CLR,,0.26,WeatherDisplay:10.37,2013-04-15 22:28:00,
2013-04-15 18:33:00,73.0,56.4,30.11,NNE,28,0.0,0.0,56,0.00,CLR,,0.26,WeatherDisplay:10.37,2013-04-15 22:33:00,
2013-04-15 18:38:00,72.4,56.8,30.11,NNE,28,0.0,0.0,58,0.00,CLR,,0.26,WeatherDisplay:10.37,2013-04-15 22:38:00,
2013-04-15 18:43:00,71.9,56.8,30.11,NNE,28,0.0,0.0,59,0.00,CLR,,0.26,WeatherDisplay:10.37,2013-04-15 22:43:00,
2013-04-15 18:48:00,72.0,56.9,30.11,NNE,30,3.5,3.5,59,0.00,CLR,,0.26,WeatherDisplay:10.37,2013-04-15 22:48:00,
2013-04-15 18:53:00,71.6,56.5,30.11,NE,41,0.0,0.0,59,0.00,CLR,,0.26,WeatherDisplay:10.37,2013-04-15 22:53:00,
2013-04-15 18:58:00,70.9,56.8,30.11,NE,41,0.7,0.0,61,0.00,CLR,,0.26,WeatherDisplay:10.37,2013-04-15 22:58:00,
2013-04-15 19:03:00,70.5,56.9,30.12,NNE,25,0.0,0.0,62,0.00,CLR,,0.26,WeatherDisplay:10.37,2013-04-15 23:03:00,
2013-04-15 19:08:00,70.2,57.0,30.12,NNE,20,0.0,0.0,63,0.00,CLR,,0.26,WeatherDisplay:10.37,2013-04-15 23:08:00,
2013-04-15 19:13:00,69.9,57.2,30.12,NNE,20,0.0,0.0,64,0.00,CLR,,0.26,WeatherDisplay:10.37,2013-04-15 23:13:00,
2013-04-15 19:18:00,69.6,57.3,30.12,NNE,20,0.0,0.0,65,0.00,CLR,,0.26,WeatherDisplay:10.37,2013-04-15 23:18:00,
2013-04-15 19:23:00,69.5,57.6,30.12,NNE,20,0.0,0.0,66,0.00,CLR,,0.26,WeatherDisplay:10.37,2013-04-15 23:23:00,
2013-04-15 19:28:00,69.3,57.5,30.12,NNE,20,0.0,0.0,66,0.00,CLR,,0.26,WeatherDisplay:10.37,2013-04-15 23:28:00,
2013-04-15 19:33:00,69.5,58.5,30.13,NNE,20,0.0,0.0,68,0.00,CLR,,0.26,WeatherDisplay:10.37,2013-04-15 23:33:00,
2013-04-15 19:38:00,70.0,58.1,30.13,NNE,20,0.0,0.0,66,0.00,CLR,,0.26,WeatherDisplay:10.37,2013-04-15 23:38:00,
2013-04-15 19:43:00,70.8,58.0,30.13,NNE,20,0.0,0.0,64,0.00,CLR,,0.26,WeatherDisplay:10.37,2013-04-15 23:43:00,
2013-04-15 19:48:00,71.1,58.3,30.13,NNE,20,0.0,0.0,64,0.00,CLR,,0.26,WeatherDisplay:10.37,2013-04-15 23:48:00,
2013-04-15 19:53:00,70.8,58.0,30.14,NNW,336,0.0,0.0,64,0.00,CLR,,0.26,WeatherDisplay:10.37,2013-04-15 23:53:00,
2013-04-15 19:58:00,70.2,58.3,30.14,NNW,336,0.0,0.0,66,0.00,CLR,,0.26,WeatherDisplay:10.37,2013-04-15 23:58:00,
2013-04-15 20:03:00,69.6,59.0,30.14,ENE,64,0.0,0.0,69,0.00,CLR,,0.26,WeatherDisplay:10.37,2013-04-16 00:03:00,
2013-04-15 20:08:00,69.8,59.2,30.14,ENE,64,0.0,0.0,69,0.00,CLR,,0.26,WeatherDisplay:10.37,2013-04-16 00:08:00,
2013-04-15 20:13:00,69.8,59.2,30.14,ENE,64,0.0,0.0,69,0.00,CLR,,0.26,WeatherDisplay:10.37,2013-04-16 00:13:00,
2013-04-15 20:18:00,69.7,59.5,30.15,ENE,64,0.0,0.0,70,0.00,CLR,,0.26,WeatherDisplay:10.37,2013-04-16 00:18:00,
2013-04-15 20:23:00,69.2,59.8,30.15,ENE,66,0.0,0.0,72,0.00,CLR,,0.26,WeatherDisplay:10.37,2013-04-16 00:23:00,
2013-04-15 20:28:00,68.4,59.8,30.16,North,356,1.2,0.0,74,0.00,CLR,,0.26,WeatherDisplay:10.37,2013-04-16 00:28:00,
2013-04-15 20:33:00,68.2,60.3,30.16,North,356,0.0,0.0,76,0.00,CLR,,0.26,WeatherDisplay:10.37,2013-04-16 00:33:00,
2013-04-15 20:38:00,68.0,60.9,30.16,NE,35,0.0,0.0,78,0.00,CLR,,0.26,WeatherDisplay:10.37,2013-04-16 00:38:00,
2013-04-15 20:43:00,67.8,60.7,30.17,NNE,32,4.6,4.6,78,0.00,CLR,,0.26,WeatherDisplay:10.37,2013-04-16 00:43:00,
2013-04-15 20:48:00,67.3,60.6,30.17,NNW,333,3.5,3.5,79,0.00,CLR,,0.26,WeatherDisplay:10.37,2013-04-16 00:48:00,
2013-04-15 20:53:00,67.0,61.0,30.17,North,10,1.1,1.1,81,0.00,CLR,,0.26,WeatherDisplay:10.37,2013-04-16 00:53:00,
2013-04-15 20:58:00,66.7,60.7,30.17,North,10,2.3,2.3,81,0.00,CLR,,0.26,WeatherDisplay:10.37,2013-04-16 00:58:00,
2013-04-15 21:03:00,66.4,61.4,30.17,NNE,32,1.2,1.2,84,0.00,CLR,,0.26,WeatherDisplay:10.37,2013-04-16 01:03:00,
2013-04-15 21:08:00,66.7,62.7,30.18,ENE,71,0.0,0.0,87,0.00,CLR,,0.26,WeatherDisplay:10.37,2013-04-16 01:08:00,
2013-04-15 21:13:00,66.7,61.7,30.18,NNW,340,3.5,3.5,84,0.00,CLR,,0.26,WeatherDisplay:10.37,2013-04-16 01:13:00,
2013-04-15 21:18:00,66.8,62.5,30.18,WSW,247,0.8,0.8,86,0.00,CLR,,0.26,WeatherDisplay:10.37,2013-04-16 01:18:00,
2013-04-15 21:23:00,67.2,64.2,30.18,ENE,71,2.7,2.7,90,0.00,CLR,,0.26,WeatherDisplay:10.37,2013-04-16 01:23:00,
2013-04-15 21:28:00,67.2,62.5,30.19,NNW,344,3.6,3.6,85,0.00,CLR,,0.26,WeatherDisplay:10.37,2013-04-16 01:28:00,
2013-04-15 21:33:00,66.8,62.5,30.19,North,7,1.8,1.8,86,0.00,CLR,,0.26,WeatherDisplay:10.37,2013-04-16 01:33:00,
2013-04-15 21:38:00,66.3,61.7,30.19,North,353,5.8,5.8,85,0.00,CLR,,0.26,WeatherDisplay:10.37,2013-04-16 01:38:00,
2013-04-15 21:43:00,66.0,62.3,30.19,North,353,0.0,0.0,88,0.00,CLR,,0.26,WeatherDisplay:10.37,2013-04-16 01:43:00,
2013-04-15 21:48:00,66.8,61.8,30.19,NW,319,3.5,3.5,84,0.00,CLR,,0.26,WeatherDisplay:10.37,2013-04-16 01:48:00,
2013-04-15 21:53:00,67.5,61.5,30.19,NW,319,0.0,0.0,81,0.00,CLR,,0.26,WeatherDisplay:10.37,2013-04-16 01:53:00,
2013-04-15 21:58:00,67.7,61.3,30.19,NE,45,0.0,0.0,80,0.00,CLR,,0.26,WeatherDisplay:10.37,2013-04-16 01:58:00,
2013-04-15 22:03:00,66.8,61.1,30.19,NE,45,0.0,0.0,82,0.00,CLR,,0.26,WeatherDisplay:10.37,2013-04-16 02:03:00,
2013-04-15 22:08:00,66.3,61.7,30.19,North,354,0.0,0.0,85,0.00,CLR,,0.26,WeatherDisplay:10.37,2013-04-16 02:08:00,
2013-04-15 22:13:00,66.9,61.6,30.20,ENE,66,1.2,0.0,83,0.00,CLR,,0.26,WeatherDisplay:10.37,2013-04-16 02:13:00,
2013-04-15 22:18:00,66.5,61.2,30.20,ENE,66,0.0,0.0,83,0.00,CLR,,0.26,WeatherDisplay:10.37,2013-04-16 02:18:00,
2013-04-15 22:23:00,66.0,61.4,30.20,West,268,2.3,2.3,85,0.00,CLR,,0.26,WeatherDisplay:10.37,2013-04-16 02:23:00,
2013-04-15 22:28:00,66.0,61.4,30.20,West,268,0.0,0.0,85,0.00,CLR,,0.26,WeatherDisplay:10.37,2013-04-16 02:28:00,
2013-04-15 22:33:00,66.2,60.9,30.21,ENE,76,3.5,3.5,83,0.00,CLR,,0.26,WeatherDisplay:10.37,2013-04-16 02:33:00,
2013-04-15 22:38:00,65.7,61.1,30.21,NNE,25,2.3,2.3,85,0.00,CLR,,0.26,WeatherDisplay:10.37,2013-04-16 02:38:00,
2013-04-15 22:43:00,65.6,61.9,30.21,NNE,25,0.0,0.0,88,0.00,CLR,,0.26,WeatherDisplay:10.37,2013-04-16 02:43:00,
2013-04-15 22:48:00,66.1,61.5,30.21,NNE,13,1.2,0.0,85,0.00,CLR,,0.26,WeatherDisplay:10.37,2013-04-16 02:48:00,
2013-04-15 22:53:00,66.0,61.4,30.21,WNW,287,0.0,0.0,85,0.00,CLR,,0.26,WeatherDisplay:10.37,2013-04-16 02:53:00,
2013-04-15 22:58:00,65.3,61.3,30.22,NNE,31,2.3,2.3,87,0.00,CLR,,0.26,WeatherDisplay:10.37,2013-04-16 02:58:00,
2013-04-15 23:03:00,65.6,62.3,30.22,NNE,31,0.0,0.0,89,0.00,CLR,,0.26,WeatherDisplay:10.37,2013-04-16 03:03:00,
2013-04-15 23:08:00,65.8,61.2,30.22,NNE,31,0.0,0.0,85,0.00,CLR,,0.26,WeatherDisplay:10.37,2013-04-16 03:08:00,
2013-04-15 23:13:00,65.9,63.5,30.22,NNE,31,0.0,0.0,92,0.00,CLR,,0.26,WeatherDisplay:10.37,2013-04-16 03:13:00,
2013-04-15 23:18:00,65.9,62.9,30.22,NNW,333,2.1,2.1,90,0.00,CLR,,0.26,WeatherDisplay:10.37,2013-04-16 03:18:00,
2013-04-15 23:23:00,65.9,61.9,30.22,NW,309,0.0,0.0,87,0.00,CLR,,0.26,WeatherDisplay:10.37,2013-04-16 03:23:00,
2013-04-15 23:28:00,65.6,61.6,30.22,NW,309,0.0,0.0,87,0.00,CLR,,0.26,WeatherDisplay:10.37,2013-04-16 03:28:00,
2013-04-15 23:33:00,65.1,61.5,30.22,NW,309,0.0,0.0,88,0.00,CLR,,0.26,WeatherDisplay:10.37,2013-04-16 03:33:00,
2013-04-15 23:38:00,64.8,61.8,30.22,NW,309,0.0,0.0,90,0.00,CLR,,0.26,WeatherDisplay:10.37,2013-04-16 03:38:00,
2013-04-15 23:43:00,64.9,62.2,30.22,NNW,344,0.0,0.0,91,0.00,CLR,,0.26,WeatherDisplay:10.37,2013-04-16 03:43:00,
2013-04-15 23:48:00,65.0,61.7,30.22,NNW,344,0.0,0.0,89,0.00,CLR,,0.26,WeatherDisplay:10.37,2013-04-16 03:48:00,
2013-04-15 23:53:00,64.9,61.9,30.22,NNW,344,0.0,0.0,90,0.00,CLR,,0.26,WeatherDisplay:10.37,2013-04-16 03:53:00,
2013-04-15 23:59:00,64.5,62.1,30.22,NNW,344,0.0,0.0,92,0.00,CLR,,0.26,WeatherDisplay:10.37,2013-04-16 03:59:00,